createdAt,value
2023-04-05T00:09:11.450Z,1.86
2023-04-05T00:19:12.942Z,1.97
2023-04-05T00:29:16.461Z,2.10
2023-04-05T00:39:16.544Z,2.25
2023-04-05T00:49:16.570Z,2.43
2023-04-05T00:59:16.566Z,2.61
2023-04-05T01:09:16.693Z,2.82
2023-04-05T01:19:16.608Z,3.05
2023-04-05T01:29:19.516Z,3.24
2023-04-05T01:39:19.660Z,3.34
2023-04-05T01:49:19.535Z,3.43
2023-04-05T01:59:19.691Z,3.52
2023-04-05T02:09:19.946Z,3.54
2023-04-05T02:19:22.448Z,3.50
2023-04-05T02:29:23.057Z,3.41
2023-04-05T02:39:23.550Z,3.33
2023-04-05T02:49:23.736Z,3.27
2023-04-05T02:59:23.913Z,3.20
2023-04-05T03:09:25.501Z,3.09
2023-04-05T03:19:28.559Z,2.94
2023-04-05T03:29:28.896Z,2.78
2023-04-05T03:39:29.758Z,2.65
2023-04-05T03:49:32.787Z,2.61
2023-04-05T03:59:33.660Z,2.59
2023-04-05T04:09:35.648Z,2.58
2023-04-05T04:19:37.652Z,2.55
2023-04-05T04:29:57.302Z,2.48
2023-04-05T04:40:07.332Z,2.38
2023-04-05T04:50:09.158Z,2.29
2023-04-05T05:00:12.654Z,2.24
2023-04-05T05:10:14.681Z,2.23
2023-04-05T05:20:16.697Z,2.28
2023-04-05T05:30:16.908Z,2.35
2023-04-05T05:40:16.776Z,2.44
2023-04-05T05:50:17.172Z,2.56
2023-04-05T06:00:16.863Z,2.83
2023-04-05T06:10:17.349Z,3.46
2023-04-05T06:20:17.839Z,4.31
2023-04-05T06:30:17.867Z,5.14
2023-04-05T06:40:17.944Z,6.18
2023-04-05T06:50:17.938Z,7.61
2023-04-05T07:00:18.092Z,10.77
2023-04-05T07:10:17.971Z,14.57
2023-04-05T07:20:18.011Z,17.72
2023-04-05T07:30:18.060Z,19.86
2023-04-05T07:40:18.103Z,18.58
2023-04-05T07:50:17.952Z,18.31
2023-04-05T08:00:18.074Z,21.55
2023-04-05T08:10:18.087Z,25.28
2023-04-05T08:20:17.983Z,28.30
2023-04-05T08:30:19.495Z,30.77
2023-04-05T08:40:20.373Z,32.50
2023-04-05T08:50:20.097Z,32.78
2023-04-05T09:00:20.166Z,32.58
2023-04-05T09:10:20.219Z,33.51
2023-04-05T09:20:20.376Z,34.73
2023-04-05T09:30:20.116Z,35.68
2023-04-05T09:40:20.196Z,36.09
2023-04-05T09:50:20.222Z,35.79
2023-04-05T10:00:20.834Z,35.07
2023-04-05T10:10:21.260Z,34.27
2023-04-05T10:20:21.193Z,32.52
2023-04-05T10:30:21.206Z,29.67
2023-04-05T10:40:21.715Z,26.49
2023-04-05T10:50:22.401Z,23.65
2023-04-05T11:00:22.344Z,21.71
2023-04-05T11:10:22.399Z,20.59
2023-04-05T11:20:22.283Z,19.56
2023-04-05T11:30:22.389Z,18.46
2023-04-05T11:40:25.115Z,17.43
2023-04-05T11:50:25.380Z,16.72
2023-04-05T12:00:26.057Z,16.50
2023-04-05T12:10:26.362Z,16.63
2023-04-05T12:20:26.322Z,16.49
2023-04-05T12:30:27.402Z,15.91
2023-04-05T12:40:27.448Z,15.20
2023-04-05T12:50:27.693Z,14.50
2023-04-05T13:00:27.446Z,14.03
2023-04-05T13:10:27.642Z,13.78
2023-04-05T13:20:27.500Z,13.65
2023-04-05T13:30:27.536Z,13.69
2023-04-05T13:40:27.540Z,13.84
2023-04-05T13:50:27.516Z,13.89
2023-04-05T14:00:27.551Z,13.80
2023-04-05T14:10:27.525Z,13.68
2023-04-05T14:20:27.467Z,13.54
2023-04-05T14:30:27.577Z,13.38
2023-04-05T14:40:27.534Z,13.22
2023-04-05T14:50:28.895Z,13.12
2023-04-05T15:00:28.552Z,13.06
2023-04-05T15:10:28.682Z,13.03
2023-04-05T15:20:28.526Z,13.03
2023-04-05T15:30:28.583Z,12.98
2023-04-05T15:40:29.263Z,12.90
2023-04-05T15:50:29.935Z,12.81
2023-04-05T16:00:30.014Z,12.68
2023-04-05T16:10:30.839Z,12.53
2023-04-05T16:20:30.779Z,12.39
2023-04-05T16:30:30.646Z,12.25
2023-04-05T16:40:30.751Z,12.11
2023-04-05T16:50:30.828Z,11.92
2023-04-05T17:00:30.757Z,11.69
2023-04-05T17:10:30.751Z,11.48
2023-04-05T17:20:31.263Z,11.25
2023-04-05T17:30:32.512Z,11.00
2023-04-05T17:40:32.769Z,10.72
2023-04-05T17:50:32.979Z,10.40
2023-04-05T18:00:32.928Z,10.02
2023-04-05T18:10:33.459Z,9.63
2023-04-05T18:20:33.985Z,9.24
2023-04-05T18:30:33.972Z,8.86
2023-04-05T18:40:33.860Z,8.53
2023-04-05T18:50:33.898Z,8.22
2023-04-05T19:00:34.488Z,7.91
2023-04-05T19:10:35.071Z,7.61
2023-04-05T19:20:34.994Z,7.31
2023-04-05T19:30:34.972Z,7.04
2023-04-05T19:40:36.892Z,6.77
2023-04-05T19:50:36.951Z,6.51
2023-04-05T20:00:36.979Z,6.26
2023-04-05T20:10:36.905Z,6.00
2023-04-05T20:20:37.035Z,5.76
2023-04-05T20:30:37.102Z,5.52
2023-04-05T20:40:37.028Z,5.31
2023-04-05T20:50:37.044Z,5.10
2023-04-05T21:00:39.034Z,4.90
2023-04-05T21:10:39.709Z,4.72
2023-04-05T21:20:40.100Z,4.56
2023-04-05T21:30:40.113Z,4.41
2023-04-05T21:40:40.094Z,4.28
2023-04-05T21:50:40.161Z,4.15
2023-04-05T22:00:40.489Z,4.06
2023-04-05T22:10:41.565Z,3.99
2023-04-05T22:20:42.184Z,3.92
2023-04-05T22:30:45.560Z,3.85
2023-04-05T22:40:46.244Z,3.77
2023-04-05T22:50:46.183Z,3.68
2023-04-05T23:00:46.687Z,3.57
2023-04-05T23:10:47.156Z,3.45
2023-04-05T23:20:47.187Z,3.35
2023-04-05T23:30:48.666Z,3.36
2023-04-05T23:40:49.172Z,3.44
2023-04-05T23:50:49.152Z,3.42
